sensor_id;sensor_type;location;lat;lon;timestamp;P1;durP1;ratioP1;P2;durP2;ratioP2
51098;SDS011;37146;48.210;16.234;2022-08-11T00:02:21;8.90;;;4.30;;
51098;SDS011;37146;48.210;16.234;2022-08-11T00:04:50;5.95;;;4.55;;
51098;SDS011;37146;48.210;16.234;2022-08-11T00:07:16;5.65;;;4.22;;
51098;SDS011;37146;48.210;16.234;2022-08-11T00:09:42;7.50;;;4.50;;
51098;SDS011;37146;48.210;16.234;2022-08-11T00:12:12;8.32;;;4.40;;
51098;SDS011;37146;48.210;16.234;2022-08-11T00:17:06;5.47;;;4.30;;
51098;SDS011;37146;48.210;16.234;2022-08-11T00:19:36;5.10;;;4.20;;
51098;SDS011;37146;48.210;16.234;2022-08-11T00:22:03;6.88;;;4.72;;
51098;SDS011;37146;48.210;16.234;2022-08-11T00:24:33;7.25;;;4.38;;
51098;SDS011;37146;48.210;16.234;2022-08-11T00:27:00;7.57;;;3.95;;
51098;SDS011;37146;48.210;16.234;2022-08-11T00:29:27;7.40;;;4.55;;
51098;SDS011;37146;48.210;16.234;2022-08-11T00:31:54;5.75;;;4.32;;
51098;SDS011;37146;48.210;16.234;2022-08-11T00:34:23;7.40;;;4.60;;
51098;SDS011;37146;48.210;16.234;2022-08-11T00:36:59;6.53;;;4.55;;
51098;SDS011;37146;48.210;16.234;2022-08-11T00:39:27;8.57;;;4.50;;
51098;SDS011;37146;48.210;16.234;2022-08-11T01:01:01;10.60;;;4.32;;
51098;SDS011;37146;48.210;16.234;2022-08-11T01:25:21;6.38;;;4.25;;
51098;SDS011;37146;48.210;16.234;2022-08-11T01:28:16;4.97;;;4.40;;
51098;SDS011;37146;48.210;16.234;2022-08-11T01:33:57;7.55;;;4.75;;
51098;SDS011;37146;48.210;16.234;2022-08-11T01:36:42;5.97;;;4.13;;
51098;SDS011;37146;48.210;16.234;2022-08-11T01:42:17;10.55;;;4.38;;
51098;SDS011;37146;48.210;16.234;2022-08-11T01:47:41;11.45;;;4.95;;
51098;SDS011;37146;48.210;16.234;2022-08-11T01:50:22;6.88;;;4.60;;
51098;SDS011;37146;48.210;16.234;2022-08-11T02:04:40;5.50;;;4.50;;
51098;SDS011;37146;48.210;16.234;2022-08-11T02:07:18;5.03;;;4.53;;
51098;SDS011;37146;48.210;16.234;2022-08-11T02:16:55;6.95;;;4.85;;
51098;SDS011;37146;48.210;16.234;2022-08-11T02:19:05;6.20;;;4.25;;
51098;SDS011;37146;48.210;16.234;2022-08-11T02:21:59;4.90;;;4.28;;
51098;SDS011;37146;48.210;16.234;2022-08-11T02:24:48;6.53;;;4.50;;
51098;SDS011;37146;48.210;16.234;2022-08-11T02:27:42;5.50;;;4.20;;
51098;SDS011;37146;48.210;16.234;2022-08-11T02:30:15;8.52;;;6.10;;
51098;SDS011;37146;48.210;16.234;2022-08-11T02:40:56;7.97;;;4.73;;
51098;SDS011;37146;48.210;16.234;2022-08-11T02:46:23;5.30;;;4.30;;
51098;SDS011;37146;48.210;16.234;2022-08-11T02:48:57;12.20;;;4.70;;
51098;SDS011;37146;48.210;16.234;2022-08-11T02:59:52;4.88;;;4.32;;
51098;SDS011;37146;48.210;16.234;2022-08-11T03:08:35;6.07;;;4.47;;
51098;SDS011;37146;48.210;16.234;2022-08-11T03:17:19;6.80;;;4.82;;
51098;SDS011;37146;48.210;16.234;2022-08-11T03:19:52;8.23;;;4.70;;
51098;SDS011;37146;48.210;16.234;2022-08-11T03:22:57;6.80;;;4.63;;
51098;SDS011;37146;48.210;16.234;2022-08-11T03:34:17;5.75;;;4.50;;
51098;SDS011;37146;48.210;16.234;2022-08-11T03:42:42;5.38;;;4.47;;
51098;SDS011;37146;48.210;16.234;2022-08-11T03:45:22;5.57;;;4.55;;
51098;SDS011;37146;48.210;16.234;2022-08-11T03:59:31;5.72;;;4.60;;
51098;SDS011;37146;48.210;16.234;2022-08-11T04:25:25;6.40;;;4.97;;
51098;SDS011;37146;48.210;16.234;2022-08-11T04:45:25;5.50;;;4.65;;
51098;SDS011;37146;48.210;16.234;2022-08-11T04:51:29;5.57;;;4.80;;
51098;SDS011;37146;48.210;16.234;2022-08-11T05:01:14;7.00;;;4.80;;
51098;SDS011;37146;48.210;16.234;2022-08-11T05:12:56;8.40;;;4.72;;
51098;SDS011;37146;48.210;16.234;2022-08-11T05:15:50;7.00;;;4.72;;
51098;SDS011;37146;48.210;16.234;2022-08-11T05:18:51;11.23;;;5.07;;
51098;SDS011;37146;48.210;16.234;2022-08-11T05:21:36;5.80;;;4.70;;
51098;SDS011;37146;48.210;16.234;2022-08-11T05:24:25;5.40;;;4.63;;
51098;SDS011;37146;48.210;16.234;2022-08-11T05:27:18;5.88;;;4.57;;
51098;SDS011;37146;48.210;16.234;2022-08-11T05:30:05;7.55;;;4.90;;
51098;SDS011;37146;48.210;16.234;2022-08-11T05:36:29;7.47;;;4.85;;
51098;SDS011;37146;48.210;16.234;2022-08-11T05:39:01;8.38;;;5.03;;
51098;SDS011;37146;48.210;16.234;2022-08-11T05:41:47;5.85;;;4.40;;
51098;SDS011;37146;48.210;16.234;2022-08-11T05:44:33;6.43;;;4.35;;
51098;SDS011;37146;48.210;16.234;2022-08-11T05:47:24;5.47;;;4.00;;
51098;SDS011;37146;48.210;16.234;2022-08-11T05:50:13;7.78;;;4.72;;
51098;SDS011;37146;48.210;16.234;2022-08-11T05:53:00;7.63;;;4.65;;
51098;SDS011;37146;48.210;16.234;2022-08-11T05:55:46;7.30;;;4.45;;
51098;SDS011;37146;48.210;16.234;2022-08-11T05:58:34;9.77;;;4.90;;
51098;SDS011;37146;48.210;16.234;2022-08-11T06:01:02;7.78;;;4.20;;
51098;SDS011;37146;48.210;16.234;2022-08-11T06:03:29;7.93;;;4.68;;
51098;SDS011;37146;48.210;16.234;2022-08-11T06:05:56;10.68;;;4.85;;
51098;SDS011;37146;48.210;16.234;2022-08-11T06:08:26;8.65;;;4.55;;
51098;SDS011;37146;48.210;16.234;2022-08-11T06:10:58;6.40;;;4.90;;
51098;SDS011;37146;48.210;16.234;2022-08-11T06:15:51;20.52;;;4.55;;
51098;SDS011;37146;48.210;16.234;2022-08-11T06:18:19;6.53;;;4.25;;
51098;SDS011;37146;48.210;16.234;2022-08-11T06:20:49;4.97;;;4.28;;
51098;SDS011;37146;48.210;16.234;2022-08-11T06:23:18;7.75;;;4.40;;
51098;SDS011;37146;48.210;16.234;2022-08-11T06:25:47;5.85;;;4.00;;
51098;SDS011;37146;48.210;16.234;2022-08-11T06:28:12;7.07;;;3.90;;
51098;SDS011;37146;48.210;16.234;2022-08-11T06:30:41;7.05;;;4.70;;
51098;SDS011;37146;48.210;16.234;2022-08-11T06:33:13;6.75;;;4.00;;
51098;SDS011;37146;48.210;16.234;2022-08-11T06:41:45;9.13;;;4.30;;
51098;SDS011;37146;48.210;16.234;2022-08-11T06:44:28;8.55;;;3.97;;
51098;SDS011;37146;48.210;16.234;2022-08-11T06:47:02;10.50;;;4.43;;
51098;SDS011;37146;48.210;16.234;2022-08-11T06:49:32;5.95;;;4.03;;
51098;SDS011;37146;48.210;16.234;2022-08-11T06:52:19;7.93;;;4.10;;
51098;SDS011;37146;48.210;16.234;2022-08-11T06:54:55;8.32;;;4.03;;
51098;SDS011;37146;48.210;16.234;2022-08-11T06:57:30;7.93;;;3.90;;
51098;SDS011;37146;48.210;16.234;2022-08-11T07:00:17;10.95;;;4.28;;
51098;SDS011;37146;48.210;16.234;2022-08-11T07:08:14;7.05;;;3.95;;
51098;SDS011;37146;48.210;16.234;2022-08-11T07:14:25;5.82;;;3.50;;
51098;SDS011;37146;48.210;16.234;2022-08-11T07:17:18;7.00;;;3.45;;
51098;SDS011;37146;48.210;16.234;2022-08-11T07:19:53;7.60;;;3.47;;
51098;SDS011;37146;48.210;16.234;2022-08-11T07:22:42;3.92;;;3.10;;
51098;SDS011;37146;48.210;16.234;2022-08-11T07:25:38;4.15;;;3.05;;
51098;SDS011;37146;48.210;16.234;2022-08-11T07:28:24;5.88;;;3.42;;
51098;SDS011;37146;48.210;16.234;2022-08-11T07:31:11;4.00;;;3.22;;
51098;SDS011;37146;48.210;16.234;2022-08-11T07:36:13;9.50;;;3.22;;
51098;SDS011;37146;48.210;16.234;2022-08-11T07:38:42;7.82;;;3.30;;
51098;SDS011;37146;48.210;16.234;2022-08-11T07:41:16;3.03;;;2.70;;
51098;SDS011;37146;48.210;16.234;2022-08-11T07:43:50;6.22;;;3.00;;
51098;SDS011;37146;48.210;16.234;2022-08-11T07:46:19;5.50;;;2.67;;
51098;SDS011;37146;48.210;16.234;2022-08-11T07:49:04;4.78;;;2.80;;
51098;SDS011;37146;48.210;16.234;2022-08-11T07:51:51;4.28;;;2.63;;
51098;SDS011;37146;48.210;16.234;2022-08-11T07:54:36;5.70;;;2.72;;
51098;SDS011;37146;48.210;16.234;2022-08-11T07:57:03;7.88;;;2.67;;
51098;SDS011;37146;48.210;16.234;2022-08-11T07:59:50;3.13;;;2.58;;
51098;SDS011;37146;48.210;16.234;2022-08-11T08:02:36;5.72;;;2.90;;
51098;SDS011;37146;48.210;16.234;2022-08-11T08:05:20;4.18;;;2.75;;
51098;SDS011;37146;48.210;16.234;2022-08-11T08:08:06;5.95;;;2.75;;
51098;SDS011;37146;48.210;16.234;2022-08-11T08:10:53;4.80;;;2.90;;
51098;SDS011;37146;48.210;16.234;2022-08-11T08:13:38;3.90;;;2.70;;
51098;SDS011;37146;48.210;16.234;2022-08-11T08:16:22;6.45;;;2.20;;
51098;SDS011;37146;48.210;16.234;2022-08-11T08:19:06;6.32;;;2.05;;
51098;SDS011;37146;48.210;16.234;2022-08-11T08:21:38;2.95;;;2.15;;
51098;SDS011;37146;48.210;16.234;2022-08-11T08:24:05;5.45;;;2.00;;
51098;SDS011;37146;48.210;16.234;2022-08-11T08:26:31;4.32;;;2.17;;
51098;SDS011;37146;48.210;16.234;2022-08-11T08:29:16;2.65;;;2.20;;
51098;SDS011;37146;48.210;16.234;2022-08-11T08:32:02;2.40;;;2.00;;
51098;SDS011;37146;48.210;16.234;2022-08-11T08:34:28;3.80;;;2.17;;
51098;SDS011;37146;48.210;16.234;2022-08-11T08:36:55;4.55;;;1.98;;
51098;SDS011;37146;48.210;16.234;2022-08-11T08:39:20;4.47;;;1.92;;
51098;SDS011;37146;48.210;16.234;2022-08-11T08:41:52;3.00;;;1.98;;
51098;SDS011;37146;48.210;16.234;2022-08-11T08:44:20;4.45;;;1.92;;
51098;SDS011;37146;48.210;16.234;2022-08-11T08:46:49;2.85;;;1.92;;
51098;SDS011;37146;48.210;16.234;2022-08-11T08:49:18;3.17;;;1.97;;
51098;SDS011;37146;48.210;16.234;2022-08-11T08:51:51;2.42;;;1.95;;
51098;SDS011;37146;48.210;16.234;2022-08-11T08:54:20;5.28;;;2.30;;
51098;SDS011;37146;48.210;16.234;2022-08-11T08:56:48;4.20;;;2.30;;
51098;SDS011;37146;48.210;16.234;2022-08-11T08:59:16;2.33;;;1.90;;
51098;SDS011;37146;48.210;16.234;2022-08-11T09:01:59;3.80;;;2.00;;
51098;SDS011;37146;48.210;16.234;2022-08-11T09:04:28;6.97;;;2.03;;
51098;SDS011;37146;48.210;16.234;2022-08-11T09:06:55;4.38;;;1.95;;
51098;SDS011;37146;48.210;16.234;2022-08-11T09:09:23;4.03;;;2.13;;
51098;SDS011;37146;48.210;16.234;2022-08-11T09:11:50;4.00;;;2.10;;
51098;SDS011;37146;48.210;16.234;2022-08-11T09:16:44;12.43;;;4.22;;
51098;SDS011;37146;48.210;16.234;2022-08-11T09:19:12;5.82;;;2.30;;
51098;SDS011;37146;48.210;16.234;2022-08-11T09:21:43;5.25;;;2.30;;
51098;SDS011;37146;48.210;16.234;2022-08-11T09:24:31;4.20;;;2.13;;
51098;SDS011;37146;48.210;16.234;2022-08-11T09:27:19;4.00;;;2.17;;
51098;SDS011;37146;48.210;16.234;2022-08-11T09:29:46;2.50;;;2.00;;
51098;SDS011;37146;48.210;16.234;2022-08-11T09:32:11;2.08;;;1.88;;
51098;SDS011;37146;48.210;16.234;2022-08-11T09:34:39;5.72;;;2.08;;
51098;SDS011;37146;48.210;16.234;2022-08-11T09:37:04;3.33;;;1.83;;
51098;SDS011;37146;48.210;16.234;2022-08-11T09:39:51;2.55;;;1.80;;
51098;SDS011;37146;48.210;16.234;2022-08-11T09:42:37;3.08;;;1.88;;
51098;SDS011;37146;48.210;16.234;2022-08-11T09:45:22;4.28;;;1.70;;
51098;SDS011;37146;48.210;16.234;2022-08-11T09:47:48;2.10;;;1.88;;
51098;SDS011;37146;48.210;16.234;2022-08-11T09:50:14;3.63;;;1.90;;
51098;SDS011;37146;48.210;16.234;2022-08-11T09:52:41;2.78;;;1.80;;
51098;SDS011;37146;48.210;16.234;2022-08-11T09:55:09;2.72;;;1.50;;
51098;SDS011;37146;48.210;16.234;2022-08-11T09:57:38;4.20;;;2.00;;
51098;SDS011;37146;48.210;16.234;2022-08-11T10:00:33;2.97;;;1.80;;
51098;SDS011;37146;48.210;16.234;2022-08-11T10:03:23;2.97;;;1.70;;
51098;SDS011;37146;48.210;16.234;2022-08-11T10:05:55;5.30;;;1.80;;
51098;SDS011;37146;48.210;16.234;2022-08-11T10:08:42;2.95;;;2.05;;
51098;SDS011;37146;48.210;16.234;2022-08-11T10:11:13;2.28;;;1.80;;
51098;SDS011;37146;48.210;16.234;2022-08-11T10:13:43;1.77;;;1.60;;
51098;SDS011;37146;48.210;16.234;2022-08-11T10:16:28;4.18;;;1.92;;
51098;SDS011;37146;48.210;16.234;2022-08-11T10:18:58;4.20;;;1.70;;
51098;SDS011;37146;48.210;16.234;2022-08-11T10:24:03;1.90;;;1.70;;
51098;SDS011;37146;48.210;16.234;2022-08-11T10:26:49;4.05;;;1.80;;
51098;SDS011;37146;48.210;16.234;2022-08-11T10:29:29;4.30;;;1.70;;
51098;SDS011;37146;48.210;16.234;2022-08-11T10:32:23;3.97;;;2.42;;
51098;SDS011;37146;48.210;16.234;2022-08-11T10:35:08;4.22;;;2.10;;
51098;SDS011;37146;48.210;16.234;2022-08-11T10:37:37;9.93;;;3.13;;
51098;SDS011;37146;48.210;16.234;2022-08-11T10:40:04;4.85;;;2.90;;
51098;SDS011;37146;48.210;16.234;2022-08-11T10:42:31;15.60;;;7.25;;
51098;SDS011;37146;48.210;16.234;2022-08-11T10:45:15;4.20;;;1.88;;
51098;SDS011;37146;48.210;16.234;2022-08-11T10:48:00;3.47;;;1.60;;
51098;SDS011;37146;48.210;16.234;2022-08-11T10:50:28;2.72;;;1.50;;
51098;SDS011;37146;48.210;16.234;2022-08-11T10:53:12;2.70;;;1.40;;
51098;SDS011;37146;48.210;16.234;2022-08-11T10:55:58;3.83;;;1.52;;
51098;SDS011;37146;48.210;16.234;2022-08-11T10:58:42;5.15;;;1.40;;
51098;SDS011;37146;48.210;16.234;2022-08-11T11:01:15;2.67;;;1.40;;
51098;SDS011;37146;48.210;16.234;2022-08-11T11:03:49;3.33;;;1.63;;
51098;SDS011;37146;48.210;16.234;2022-08-11T11:09:14;2.22;;;1.55;;
51098;SDS011;37146;48.210;16.234;2022-08-11T11:12:06;3.63;;;1.50;;
51098;SDS011;37146;48.210;16.234;2022-08-11T11:15:05;2.63;;;1.30;;
51098;SDS011;37146;48.210;16.234;2022-08-11T11:17:54;3.67;;;1.40;;
51098;SDS011;37146;48.210;16.234;2022-08-11T11:20:55;2.58;;;1.60;;
51098;SDS011;37146;48.210;16.234;2022-08-11T11:26:17;2.00;;;1.52;;
51098;SDS011;37146;48.210;16.234;2022-08-11T11:34:22;2.67;;;1.45;;
51098;SDS011;37146;48.210;16.234;2022-08-11T11:36:53;2.58;;;1.52;;
51098;SDS011;37146;48.210;16.234;2022-08-11T11:39:24;2.88;;;1.52;;
51098;SDS011;37146;48.210;16.234;2022-08-11T11:41:55;2.05;;;1.38;;
51098;SDS011;37146;48.210;16.234;2022-08-11T11:44:23;1.70;;;1.33;;
51098;SDS011;37146;48.210;16.234;2022-08-11T11:46:50;2.30;;;1.35;;
51098;SDS011;37146;48.210;16.234;2022-08-11T11:49:17;1.65;;;1.40;;
51098;SDS011;37146;48.210;16.234;2022-08-11T11:51:45;3.85;;;1.50;;
51098;SDS011;37146;48.210;16.234;2022-08-11T11:54:13;4.07;;;1.40;;
51098;SDS011;37146;48.210;16.234;2022-08-11T11:56:39;1.88;;;1.30;;
51098;SDS011;37146;48.210;16.234;2022-08-11T11:59:06;4.35;;;1.40;;
51098;SDS011;37146;48.210;16.234;2022-08-11T12:01:51;3.45;;;1.30;;
51098;SDS011;37146;48.210;16.234;2022-08-11T12:04:18;1.40;;;1.30;;
51098;SDS011;37146;48.210;16.234;2022-08-11T12:06:45;2.28;;;1.45;;
51098;SDS011;37146;48.210;16.234;2022-08-11T12:09:11;1.70;;;1.25;;
51098;SDS011;37146;48.210;16.234;2022-08-11T12:11:39;3.17;;;1.55;;
51098;SDS011;37146;48.210;16.234;2022-08-11T12:14:23;1.40;;;1.30;;
51098;SDS011;37146;48.210;16.234;2022-08-11T12:16:52;1.40;;;1.30;;
51098;SDS011;37146;48.210;16.234;2022-08-11T12:19:21;3.00;;;1.60;;
51098;SDS011;37146;48.210;16.234;2022-08-11T12:21:48;2.67;;;1.50;;
51098;SDS011;37146;48.210;16.234;2022-08-11T12:24:33;2.08;;;1.35;;
51098;SDS011;37146;48.210;16.234;2022-08-11T12:27:18;1.63;;;1.30;;
51098;SDS011;37146;48.210;16.234;2022-08-11T12:29:48;2.97;;;1.50;;
51098;SDS011;37146;48.210;16.234;2022-08-11T12:32:15;3.20;;;1.52;;
51098;SDS011;37146;48.210;16.234;2022-08-11T12:34:44;2.10;;;1.50;;
51098;SDS011;37146;48.210;16.234;2022-08-11T12:37:11;3.53;;;1.38;;
51098;SDS011;37146;48.210;16.234;2022-08-11T12:39:38;2.30;;;1.35;;
51098;SDS011;37146;48.210;16.234;2022-08-11T12:42:27;3.60;;;1.52;;
51098;SDS011;37146;48.210;16.234;2022-08-11T12:45:15;2.25;;;1.55;;
51098;SDS011;37146;48.210;16.234;2022-08-11T12:48:04;2.50;;;1.48;;
51098;SDS011;37146;48.210;16.234;2022-08-11T12:50:50;2.65;;;1.23;;
51098;SDS011;37146;48.210;16.234;2022-08-11T12:53:39;2.45;;;1.40;;
51098;SDS011;37146;48.210;16.234;2022-08-11T12:56:09;3.33;;;1.50;;
51098;SDS011;37146;48.210;16.234;2022-08-11T12:58:54;4.43;;;1.55;;
51098;SDS011;37146;48.210;16.234;2022-08-11T13:01:39;1.38;;;1.27;;
51098;SDS011;37146;48.210;16.234;2022-08-11T13:04:23;4.75;;;1.77;;
51098;SDS011;37146;48.210;16.234;2022-08-11T13:07:07;1.90;;;1.23;;
51098;SDS011;37146;48.210;16.234;2022-08-11T13:09:34;4.18;;;1.50;;
51098;SDS011;37146;48.210;16.234;2022-08-11T13:11:59;2.20;;;1.30;;
51098;SDS011;37146;48.210;16.234;2022-08-11T13:14:43;3.58;;;1.30;;
51098;SDS011;37146;48.210;16.234;2022-08-11T13:17:09;4.85;;;1.50;;
51098;SDS011;37146;48.210;16.234;2022-08-11T13:19:47;5.68;;;1.63;;
51098;SDS011;37146;48.210;16.234;2022-08-11T13:22:15;4.90;;;1.60;;
51098;SDS011;37146;48.210;16.234;2022-08-11T13:24:42;4.38;;;1.40;;
51098;SDS011;37146;48.210;16.234;2022-08-11T13:27:08;2.22;;;1.30;;
51098;SDS011;37146;48.210;16.234;2022-08-11T13:29:36;2.33;;;1.45;;
51098;SDS011;37146;48.210;16.234;2022-08-11T13:32:05;2.15;;;1.50;;
51098;SDS011;37146;48.210;16.234;2022-08-11T13:34:31;2.20;;;1.50;;
51098;SDS011;37146;48.210;16.234;2022-08-11T13:37:00;1.80;;;1.27;;
51098;SDS011;37146;48.210;16.234;2022-08-11T13:39:29;1.70;;;1.40;;
51098;SDS011;37146;48.210;16.234;2022-08-11T13:41:57;1.65;;;1.33;;
51098;SDS011;37146;48.210;16.234;2022-08-11T13:44:27;3.28;;;1.77;;
51098;SDS011;37146;48.210;16.234;2022-08-11T13:46:55;3.40;;;1.67;;
51098;SDS011;37146;48.210;16.234;2022-08-11T13:49:22;5.00;;;1.55;;
51098;SDS011;37146;48.210;16.234;2022-08-11T13:51:50;1.90;;;1.63;;
51098;SDS011;37146;48.210;16.234;2022-08-11T13:54:23;2.63;;;1.30;;
51098;SDS011;37146;48.210;16.234;2022-08-11T13:56:52;1.65;;;1.20;;
51098;SDS011;37146;48.210;16.234;2022-08-11T13:59:20;2.75;;;1.40;;
51098;SDS011;37146;48.210;16.234;2022-08-11T14:01:54;2.65;;;1.50;;
51098;SDS011;37146;48.210;16.234;2022-08-11T14:04:27;3.13;;;1.50;;
51098;SDS011;37146;48.210;16.234;2022-08-11T14:06:57;4.32;;;1.60;;
51098;SDS011;37146;48.210;16.234;2022-08-11T14:09:26;3.10;;;1.73;;
51098;SDS011;37146;48.210;16.234;2022-08-11T14:11:55;2.40;;;1.52;;
51098;SDS011;37146;48.210;16.234;2022-08-11T14:14:41;6.13;;;1.50;;
51098;SDS011;37146;48.210;16.234;2022-08-11T14:17:08;2.58;;;1.42;;
51098;SDS011;37146;48.210;16.234;2022-08-11T14:19:35;2.42;;;1.73;;
51098;SDS011;37146;48.210;16.234;2022-08-11T14:22:04;4.00;;;1.50;;
51098;SDS011;37146;48.210;16.234;2022-08-11T14:24:32;3.90;;;1.50;;
51098;SDS011;37146;48.210;16.234;2022-08-11T14:26:59;2.95;;;1.63;;
51098;SDS011;37146;48.210;16.234;2022-08-11T14:29:26;2.80;;;1.90;;
51098;SDS011;37146;48.210;16.234;2022-08-11T14:31:56;1.90;;;1.70;;
51098;SDS011;37146;48.210;16.234;2022-08-11T14:34:26;1.98;;;1.50;;
51098;SDS011;37146;48.210;16.234;2022-08-11T14:36:58;1.70;;;1.40;;
51098;SDS011;37146;48.210;16.234;2022-08-11T14:39:30;5.32;;;2.00;;
51098;SDS011;37146;48.210;16.234;2022-08-11T14:42:03;2.08;;;1.60;;
51098;SDS011;37146;48.210;16.234;2022-08-11T14:44:53;2.25;;;1.75;;
51098;SDS011;37146;48.210;16.234;2022-08-11T14:47:40;4.38;;;1.70;;
51098;SDS011;37146;48.210;16.234;2022-08-11T14:50:11;3.45;;;1.52;;
51098;SDS011;37146;48.210;16.234;2022-08-11T14:52:42;2.78;;;1.90;;
51098;SDS011;37146;48.210;16.234;2022-08-11T14:55:21;3.90;;;1.90;;
51098;SDS011;37146;48.210;16.234;2022-08-11T14:58:12;4.53;;;1.70;;
51098;SDS011;37146;48.210;16.234;2022-08-11T15:00:41;4.50;;;2.00;;
51098;SDS011;37146;48.210;16.234;2022-08-11T15:03:09;2.45;;;1.88;;
51098;SDS011;37146;48.210;16.234;2022-08-11T15:05:38;3.83;;;1.80;;
51098;SDS011;37146;48.210;16.234;2022-08-11T15:08:06;2.85;;;1.75;;
51098;SDS011;37146;48.210;16.234;2022-08-11T15:10:32;4.05;;;1.80;;
51098;SDS011;37146;48.210;16.234;2022-08-11T15:13:00;4.40;;;2.05;;
51098;SDS011;37146;48.210;16.234;2022-08-11T15:15:27;5.07;;;1.80;;
51098;SDS011;37146;48.210;16.234;2022-08-11T15:18:12;4.20;;;1.75;;
51098;SDS011;37146;48.210;16.234;2022-08-11T15:20:40;6.85;;;1.88;;
51098;SDS011;37146;48.210;16.234;2022-08-11T15:23:25;2.30;;;1.77;;
51098;SDS011;37146;48.210;16.234;2022-08-11T15:26:13;4.22;;;1.85;;
51098;SDS011;37146;48.210;16.234;2022-08-11T15:28:46;3.70;;;1.90;;
51098;SDS011;37146;48.210;16.234;2022-08-11T15:31:32;5.05;;;2.28;;
51098;SDS011;37146;48.210;16.234;2022-08-11T15:34:19;2.00;;;1.80;;
51098;SDS011;37146;48.210;16.234;2022-08-11T15:37:07;3.38;;;2.00;;
51098;SDS011;37146;48.210;16.234;2022-08-11T15:40:15;5.13;;;2.00;;
51098;SDS011;37146;48.210;16.234;2022-08-11T15:43:09;4.50;;;2.03;;
51098;SDS011;37146;48.210;16.234;2022-08-11T15:45:57;6.95;;;2.00;;
51098;SDS011;37146;48.210;16.234;2022-08-11T15:50:59;7.00;;;2.30;;
51098;SDS011;37146;48.210;16.234;2022-08-11T15:53:40;4.35;;;2.20;;
51098;SDS011;37146;48.210;16.234;2022-08-11T15:56:07;3.55;;;2.10;;
51098;SDS011;37146;48.210;16.234;2022-08-11T15:58:37;5.13;;;2.20;;
51098;SDS011;37146;48.210;16.234;2022-08-11T16:01:25;5.22;;;2.15;;
51098;SDS011;37146;48.210;16.234;2022-08-11T16:04:21;5.28;;;2.05;;
51098;SDS011;37146;48.210;16.234;2022-08-11T16:09:34;4.03;;;2.38;;
51098;SDS011;37146;48.210;16.234;2022-08-11T16:12:04;5.72;;;2.33;;
51098;SDS011;37146;48.210;16.234;2022-08-11T16:14:38;5.68;;;2.20;;
51098;SDS011;37146;48.210;16.234;2022-08-11T16:17:26;3.88;;;1.98;;
51098;SDS011;37146;48.210;16.234;2022-08-11T16:19:57;3.42;;;2.15;;
51098;SDS011;37146;48.210;16.234;2022-08-11T16:22:26;3.53;;;2.05;;
51098;SDS011;37146;48.210;16.234;2022-08-11T16:25:10;3.60;;;2.10;;
51098;SDS011;37146;48.210;16.234;2022-08-11T16:27:39;5.72;;;2.20;;
51098;SDS011;37146;48.210;16.234;2022-08-11T16:30:08;3.55;;;1.90;;
51098;SDS011;37146;48.210;16.234;2022-08-11T16:32:35;2.92;;;2.40;;
51098;SDS011;37146;48.210;16.234;2022-08-11T16:35:05;4.22;;;2.03;;
51098;SDS011;37146;48.210;16.234;2022-08-11T16:37:52;4.30;;;2.10;;
51098;SDS011;37146;48.210;16.234;2022-08-11T16:40:38;3.28;;;1.80;;
51098;SDS011;37146;48.210;16.234;2022-08-11T16:43:06;4.03;;;1.90;;
51098;SDS011;37146;48.210;16.234;2022-08-11T16:45:52;3.08;;;2.00;;
51098;SDS011;37146;48.210;16.234;2022-08-11T16:48:38;5.68;;;2.20;;
51098;SDS011;37146;48.210;16.234;2022-08-11T16:51:06;3.88;;;1.83;;
51098;SDS011;37146;48.210;16.234;2022-08-11T16:53:34;7.05;;;2.10;;
51098;SDS011;37146;48.210;16.234;2022-08-11T16:56:02;4.35;;;2.10;;
51098;SDS011;37146;48.210;16.234;2022-08-11T16:58:30;3.08;;;1.90;;
51098;SDS011;37146;48.210;16.234;2022-08-11T17:01:19;3.08;;;2.03;;
51098;SDS011;37146;48.210;16.234;2022-08-11T17:03:50;3.28;;;2.08;;
51098;SDS011;37146;48.210;16.234;2022-08-11T17:06:39;4.05;;;1.70;;
51098;SDS011;37146;48.210;16.234;2022-08-11T17:09:26;2.95;;;1.92;;
51098;SDS011;37146;48.210;16.234;2022-08-11T17:12:15;5.22;;;2.70;;
51098;SDS011;37146;48.210;16.234;2022-08-11T17:15:04;6.07;;;2.90;;
51098;SDS011;37146;48.210;16.234;2022-08-11T17:17:53;6.40;;;2.60;;
51098;SDS011;37146;48.210;16.234;2022-08-11T17:20:22;3.60;;;2.53;;
51098;SDS011;37146;48.210;16.234;2022-08-11T17:22:48;5.95;;;2.40;;
51098;SDS011;37146;48.210;16.234;2022-08-11T17:25:34;4.85;;;2.70;;
51098;SDS011;37146;48.210;16.234;2022-08-11T17:27:59;5.13;;;2.40;;
51098;SDS011;37146;48.210;16.234;2022-08-11T17:30:27;3.03;;;2.20;;
51098;SDS011;37146;48.210;16.234;2022-08-11T17:33:14;3.83;;;2.35;;
51098;SDS011;37146;48.210;16.234;2022-08-11T17:35:58;3.45;;;2.63;;
51098;SDS011;37146;48.210;16.234;2022-08-11T17:38:25;5.40;;;2.83;;
51098;SDS011;37146;48.210;16.234;2022-08-11T17:40:53;5.72;;;2.72;;
51098;SDS011;37146;48.210;16.234;2022-08-11T17:43:39;4.63;;;2.20;;
51098;SDS011;37146;48.210;16.234;2022-08-11T17:46:25;4.28;;;2.42;;
51098;SDS011;37146;48.210;16.234;2022-08-11T17:49:10;4.30;;;2.83;;
51098;SDS011;37146;48.210;16.234;2022-08-11T17:51:37;4.13;;;2.38;;
51098;SDS011;37146;48.210;16.234;2022-08-11T17:54:25;8.50;;;2.50;;
51098;SDS011;37146;48.210;16.234;2022-08-11T17:57:10;6.78;;;2.30;;
51098;SDS011;37146;48.210;16.234;2022-08-11T17:59:56;3.08;;;1.80;;
51098;SDS011;37146;48.210;16.234;2022-08-11T18:02:30;3.88;;;1.90;;
51098;SDS011;37146;48.210;16.234;2022-08-11T18:05:18;2.85;;;1.77;;
51098;SDS011;37146;48.210;16.234;2022-08-11T18:07:45;2.50;;;1.70;;
51098;SDS011;37146;48.210;16.234;2022-08-11T18:10:33;3.88;;;1.70;;
51098;SDS011;37146;48.210;16.234;2022-08-11T18:13:18;6.03;;;2.00;;
51098;SDS011;37146;48.210;16.234;2022-08-11T18:16:04;3.95;;;1.80;;
51098;SDS011;37146;48.210;16.234;2022-08-11T18:18:49;3.65;;;1.83;;
51098;SDS011;37146;48.210;16.234;2022-08-11T18:21:33;2.08;;;1.80;;
51098;SDS011;37146;48.210;16.234;2022-08-11T18:24:18;3.60;;;1.70;;
51098;SDS011;37146;48.210;16.234;2022-08-11T18:27:07;2.47;;;1.75;;
51098;SDS011;37146;48.210;16.234;2022-08-11T18:29:54;2.78;;;1.80;;
51098;SDS011;37146;48.210;16.234;2022-08-11T18:32:43;3.90;;;1.70;;
51098;SDS011;37146;48.210;16.234;2022-08-11T18:35:29;4.47;;;1.88;;
51098;SDS011;37146;48.210;16.234;2022-08-11T18:38:15;3.35;;;1.70;;
51098;SDS011;37146;48.210;16.234;2022-08-11T18:41:01;4.18;;;2.10;;
51098;SDS011;37146;48.210;16.234;2022-08-11T18:43:48;7.60;;;1.90;;
51098;SDS011;37146;48.210;16.234;2022-08-11T18:46:34;5.82;;;2.17;;
51098;SDS011;37146;48.210;16.234;2022-08-11T18:49:23;4.60;;;2.03;;
51098;SDS011;37146;48.210;16.234;2022-08-11T18:52:10;2.63;;;2.20;;
51098;SDS011;37146;48.210;16.234;2022-08-11T18:54:57;4.50;;;2.42;;
51098;SDS011;37146;48.210;16.234;2022-08-11T18:57:45;2.67;;;2.10;;
51098;SDS011;37146;48.210;16.234;2022-08-11T19:00:31;3.50;;;2.28;;
51098;SDS011;37146;48.210;16.234;2022-08-11T19:03:18;5.07;;;2.10;;
51098;SDS011;37146;48.210;16.234;2022-08-11T19:06:04;3.72;;;1.98;;
51098;SDS011;37146;48.210;16.234;2022-08-11T19:08:53;7.25;;;2.25;;
51098;SDS011;37146;48.210;16.234;2022-08-11T19:11:40;4.32;;;2.45;;
51098;SDS011;37146;48.210;16.234;2022-08-11T19:14:26;4.97;;;2.47;;
51098;SDS011;37146;48.210;16.234;2022-08-11T19:17:13;6.80;;;2.50;;
51098;SDS011;37146;48.210;16.234;2022-08-11T19:19:57;2.65;;;2.10;;
51098;SDS011;37146;48.210;16.234;2022-08-11T19:22:43;5.03;;;2.50;;
51098;SDS011;37146;48.210;16.234;2022-08-11T19:25:29;3.58;;;2.45;;